createdAt,value
2023-01-17T00:01:46.613Z,95.69
2023-01-17T00:04:31.843Z,95.39
2023-01-17T00:07:17.059Z,97.28
2023-01-17T00:09:58.891Z,96.20
2023-01-17T00:12:30.695Z,96.61
2023-01-17T00:14:58.580Z,95.27
2023-01-17T00:17:26.916Z,95.84
2023-01-17T00:20:12.373Z,95.29
2023-01-17T00:22:57.835Z,94.83
2023-01-17T00:25:49.380Z,95.82
2023-01-17T00:28:16.332Z,96.46
2023-01-17T00:30:42.902Z,97.02
2023-01-17T00:33:09.463Z,97.13
2023-01-17T00:35:36.112Z,97.69
2023-01-17T00:38:13.835Z,99.19
2023-01-17T00:40:42.312Z,95.70
2023-01-17T00:43:29.364Z,96.13
2023-01-17T00:46:15.102Z,95.33
2023-01-17T00:49:03.103Z,94.16
2023-01-17T00:51:49.902Z,95.93
2023-01-17T00:54:34.917Z,96.02
2023-01-17T00:57:20.524Z,96.81
2023-01-17T01:00:05.761Z,96.92
2023-01-17T01:02:51.785Z,96.00
2023-01-17T01:05:37.138Z,96.63
2023-01-17T01:08:22.370Z,97.42
2023-01-17T01:11:07.639Z,97.79
2023-01-17T01:13:56.013Z,96.95
2023-01-17T01:16:41.148Z,96.46
2023-01-17T01:19:26.351Z,98.18
2023-01-17T01:22:11.849Z,97.14
2023-01-17T01:24:56.776Z,96.03
2023-01-17T01:27:41.862Z,96.93
2023-01-17T01:30:27.438Z,97.06
2023-01-17T01:33:12.454Z,97.40
2023-01-17T01:35:39.169Z,97.47
2023-01-17T01:38:05.908Z,96.94
2023-01-17T01:40:32.629Z,95.83
2023-01-17T01:43:00.398Z,95.21
2023-01-17T01:45:29.172Z,94.95
2023-01-17T01:48:05.203Z,92.96
2023-01-17T01:50:34.181Z,93.65
2023-01-17T01:53:02.780Z,93.15
2023-01-17T01:55:32.715Z,92.34
2023-01-17T01:58:04.808Z,90.29
2023-01-17T02:00:35.249Z,90.72
2023-01-17T02:03:06.845Z,90.43
2023-01-17T02:05:33.978Z,90.66
2023-01-17T02:08:08.778Z,91.45
2023-01-17T02:10:36.858Z,92.31
2023-01-17T02:13:04.278Z,93.93
2023-01-17T02:15:55.955Z,94.29
2023-01-17T02:18:45.220Z,94.09
2023-01-17T02:21:33.958Z,92.85
2023-01-17T02:24:08.470Z,93.08
2023-01-17T02:26:44.704Z,92.78
2023-01-17T02:29:32.738Z,93.61
2023-01-17T02:32:11.117Z,92.33
2023-01-17T02:34:42.236Z,92.57
2023-01-17T02:37:20.557Z,92.51
2023-01-17T02:40:00.605Z,91.57
2023-01-17T02:42:32.386Z,91.06
2023-01-17T02:44:59.011Z,92.32
2023-01-17T02:47:31.499Z,92.45
2023-01-17T02:50:02.012Z,92.14
2023-01-17T02:52:43.909Z,92.87
2023-01-17T02:55:40.877Z,93.66
2023-01-17T02:58:19.379Z,94.43
2023-01-17T03:00:59.081Z,94.58
2023-01-17T03:03:34.076Z,94.26
2023-01-17T03:06:13.714Z,93.64
2023-01-17T03:08:41.661Z,93.57
2023-01-17T03:11:09.713Z,93.92
2023-01-17T03:13:36.761Z,93.99
2023-01-17T03:16:06.493Z,94.33
2023-01-17T03:18:33.156Z,93.89
2023-01-17T03:21:02.125Z,94.27
2023-01-17T03:23:28.820Z,93.21
2023-01-17T03:25:55.460Z,93.21
2023-01-17T03:28:22.143Z,92.00
2023-01-17T03:30:48.786Z,91.37
2023-01-17T03:33:17.740Z,91.84
2023-01-17T03:35:49.823Z,93.17
2023-01-17T03:38:16.456Z,92.54
2023-01-17T03:40:46.621Z,90.97
2023-01-17T03:43:13.535Z,90.97
2023-01-17T03:45:40.224Z,91.02
2023-01-17T03:48:06.898Z,90.86
2023-01-17T03:50:33.521Z,90.34
2023-01-17T03:53:02.006Z,90.53
2023-01-17T03:55:28.649Z,89.80
2023-01-17T03:57:55.212Z,90.50
2023-01-17T04:00:22.556Z,91.07
2023-01-17T04:02:49.692Z,90.25
2023-01-17T04:05:17.032Z,91.00
2023-01-17T04:07:46.622Z,91.49
2023-01-17T04:10:17.206Z,92.88
2023-01-17T04:12:43.870Z,93.41
2023-01-17T04:15:10.969Z,93.33
2023-01-17T04:17:37.766Z,92.38
2023-01-17T04:20:04.862Z,93.17
2023-01-17T04:22:34.199Z,92.57
2023-01-17T04:25:01.061Z,93.02
2023-01-17T04:27:27.664Z,92.65
2023-01-17T04:29:54.311Z,93.12
2023-01-17T04:32:20.897Z,92.98
2023-01-17T04:34:47.530Z,93.26
2023-01-17T04:37:14.180Z,93.13
2023-01-17T04:39:40.752Z,91.55
2023-01-17T04:42:07.538Z,91.22
2023-01-17T04:44:34.152Z,91.37
2023-01-17T04:47:02.030Z,91.99
2023-01-17T04:49:28.643Z,92.20
2023-01-17T04:51:55.227Z,92.25
2023-01-17T04:54:21.816Z,91.52
2023-01-17T04:56:49.094Z,91.61
2023-01-17T04:59:16.012Z,91.82
2023-01-17T05:01:42.805Z,92.61
2023-01-17T05:04:09.465Z,91.02
2023-01-17T05:06:36.054Z,90.56
2023-01-17T05:09:02.856Z,90.48
2023-01-17T05:11:29.465Z,90.93
2023-01-17T05:13:56.101Z,90.17
2023-01-17T05:16:22.886Z,91.30
2023-01-17T05:18:54.964Z,91.31
2023-01-17T05:21:22.149Z,91.89
2023-01-17T05:23:48.867Z,91.32
2023-01-17T05:26:15.519Z,92.31
2023-01-17T05:28:42.117Z,92.74
2023-01-17T05:31:09.146Z,92.06
2023-01-17T05:33:35.870Z,91.06
2023-01-17T05:36:03.574Z,90.26
2023-01-17T05:38:30.125Z,90.91
2023-01-17T05:41:04.648Z,92.73
2023-01-17T05:43:34.279Z,92.72
2023-01-17T05:46:00.972Z,91.71
2023-01-17T05:48:27.602Z,91.57
2023-01-17T05:50:54.265Z,92.04
2023-01-17T05:53:20.845Z,91.39
2023-01-17T05:55:48.055Z,92.05
2023-01-17T05:58:22.528Z,90.94
2023-01-17T06:00:49.899Z,91.25
2023-01-17T06:03:16.671Z,92.15
2023-01-17T06:05:44.925Z,91.77
2023-01-17T06:08:11.634Z,92.00
2023-01-17T06:10:38.231Z,91.31
2023-01-17T06:13:07.458Z,90.43
2023-01-17T06:15:35.838Z,90.80
2023-01-17T06:18:07.429Z,91.72
2023-01-17T06:20:34.169Z,91.06
2023-01-17T06:23:04.925Z,91.28
2023-01-17T06:25:43.816Z,91.08
2023-01-17T06:28:12.391Z,91.31
2023-01-17T06:30:42.162Z,92.05
2023-01-17T06:33:08.725Z,92.49
2023-01-17T06:35:37.522Z,93.26
2023-01-17T06:38:04.239Z,93.30
2023-01-17T06:40:31.020Z,92.75
2023-01-17T06:43:01.944Z,92.75
2023-01-17T06:45:29.871Z,91.81
2023-01-17T06:47:58.584Z,92.68
2023-01-17T06:50:26.495Z,91.55
2023-01-17T06:53:01.032Z,90.90
2023-01-17T06:55:29.435Z,92.67
2023-01-17T06:57:57.123Z,91.36
2023-01-17T07:00:24.071Z,90.72
2023-01-17T07:02:53.276Z,90.68
2023-01-17T07:05:20.363Z,91.50
2023-01-17T07:07:47.310Z,91.26
2023-01-17T07:10:14.831Z,92.20
2023-01-17T07:12:41.487Z,90.85
2023-01-17T07:15:08.635Z,90.19
2023-01-17T07:17:35.321Z,90.01
2023-01-17T07:20:02.074Z,91.43
2023-01-17T07:22:28.651Z,90.49
2023-01-17T07:24:58.658Z,90.57
2023-01-17T07:27:27.912Z,89.91
2023-01-17T07:29:54.542Z,90.02
2023-01-17T07:32:21.530Z,90.85
2023-01-17T07:34:48.254Z,88.81
2023-01-17T07:37:15.394Z,89.64
2023-01-17T07:39:42.257Z,89.53
2023-01-17T07:42:09.307Z,88.16
2023-01-17T07:44:36.142Z,88.98
2023-01-17T07:47:04.260Z,89.09
2023-01-17T07:49:30.943Z,88.49
2023-01-17T07:51:57.626Z,88.69
2023-01-17T07:54:24.242Z,88.34
2023-01-17T07:56:50.873Z,86.96
2023-01-17T07:59:18.124Z,87.40
2023-01-17T08:01:44.910Z,87.07
2023-01-17T08:04:11.690Z,88.10
2023-01-17T08:06:39.558Z,86.83
2023-01-17T08:09:06.259Z,85.90
2023-01-17T08:11:32.843Z,85.45
2023-01-17T08:14:02.347Z,85.29
2023-01-17T08:16:29.734Z,85.20
2023-01-17T08:18:56.740Z,84.75
2023-01-17T08:21:23.905Z,85.65
2023-01-17T08:23:51.620Z,85.04
2023-01-17T08:26:22.696Z,86.02
2023-01-17T08:28:55.108Z,85.35
2023-01-17T08:31:21.773Z,86.43
2023-01-17T08:33:48.429Z,85.78
2023-01-17T08:36:15.097Z,85.90
2023-01-17T08:38:41.659Z,87.21
2023-01-17T08:41:08.530Z,85.92
2023-01-17T08:43:35.325Z,86.23
2023-01-17T08:46:02.049Z,86.16
2023-01-17T08:48:28.775Z,86.05
2023-01-17T08:50:55.431Z,85.82
2023-01-17T08:53:23.290Z,85.65
2023-01-17T08:55:57.627Z,84.96
2023-01-17T08:58:24.277Z,84.15
2023-01-17T09:00:50.978Z,83.51
2023-01-17T09:03:17.704Z,83.36
2023-01-17T09:05:44.400Z,83.27
2023-01-17T09:08:11.225Z,83.56
2023-01-17T09:10:37.841Z,82.29
2023-01-17T09:13:07.562Z,81.31
2023-01-17T09:15:34.285Z,82.09
2023-01-17T09:18:01.571Z,82.19
2023-01-17T09:20:30.167Z,82.28
2023-01-17T09:22:57.553Z,82.53
2023-01-17T09:25:24.244Z,81.48
2023-01-17T09:27:50.943Z,80.71
2023-01-17T09:30:17.740Z,81.01
2023-01-17T09:32:44.374Z,80.78
2023-01-17T09:35:11.830Z,80.72
2023-01-17T09:37:38.553Z,79.89
2023-01-17T09:40:10.520Z,79.17
2023-01-17T09:42:39.783Z,79.97
2023-01-17T09:45:15.040Z,78.75
2023-01-17T09:47:44.229Z,78.75
2023-01-17T09:50:32.111Z,78.49
2023-01-17T09:53:01.787Z,78.35
2023-01-17T09:55:43.020Z,77.97
2023-01-17T09:58:19.951Z,78.80
2023-01-17T10:01:13.051Z,78.54
2023-01-17T10:03:52.153Z,79.33
2023-01-17T10:06:36.582Z,78.22
2023-01-17T10:09:09.382Z,77.92
2023-01-17T10:11:43.144Z,78.18
2023-01-17T10:14:28.349Z,77.07
2023-01-17T10:17:03.458Z,78.33
2023-01-17T10:19:31.098Z,77.40
2023-01-17T10:22:19.725Z,77.46
2023-01-17T10:25:07.278Z,77.22
2023-01-17T10:27:43.816Z,77.20
2023-01-17T10:30:27.800Z,76.85
2023-01-17T10:32:56.504Z,77.66
2023-01-17T10:35:27.343Z,77.40
2023-01-17T10:37:58.449Z,76.08
2023-01-17T10:40:29.759Z,75.99
2023-01-17T10:43:04.696Z,76.23
2023-01-17T10:45:37.205Z,76.18
2023-01-17T10:48:29.707Z,76.42
2023-01-17T10:51:03.099Z,76.22
2023-01-17T10:54:04.692Z,74.82
2023-01-17T10:56:32.552Z,75.31
2023-01-17T10:59:23.691Z,75.98
2023-01-17T11:01:51.311Z,75.44
2023-01-17T11:04:21.630Z,76.28
2023-01-17T11:07:20.979Z,75.47
2023-01-17T11:09:55.835Z,75.33
2023-01-17T11:13:01.220Z,75.39
2023-01-17T11:15:28.021Z,75.03
2023-01-17T11:18:06.337Z,74.63
2023-01-17T11:20:36.196Z,74.83
2023-01-17T11:23:14.658Z,73.49
2023-01-17T11:25:48.972Z,75.15
2023-01-17T11:28:30.500Z,73.65
2023-01-17T11:31:01.082Z,73.27
2023-01-17T11:33:35.982Z,73.63
2023-01-17T11:36:02.732Z,73.63
2023-01-17T11:38:29.418Z,72.59
2023-01-17T11:41:15.967Z,70.95
2023-01-17T11:43:50.677Z,71.13
2023-01-17T11:46:18.691Z,70.51
2023-01-17T11:48:56.198Z,70.69
2023-01-17T11:51:30.228Z,71.46
2023-01-17T11:54:12.460Z,72.03
2023-01-17T11:56:40.630Z,73.91
2023-01-17T11:59:35.114Z,72.84
2023-01-17T12:02:42.373Z,71.49
2023-01-17T12:05:33.377Z,70.82
2023-01-17T12:08:24.891Z,70.69
2023-01-17T12:11:03.524Z,70.56
2023-01-17T12:13:54.121Z,70.64
2023-01-17T12:16:29.975Z,69.83
2023-01-17T12:19:08.688Z,69.68
2023-01-17T12:22:12.775Z,70.37
2023-01-17T12:25:14.886Z,68.68
2023-01-17T12:27:51.541Z,67.88
2023-01-17T12:30:34.946Z,67.52
2023-01-17T12:33:19.370Z,67.23
2023-01-17T12:35:55.887Z,66.43
2023-01-17T12:38:32.906Z,65.68
2023-01-17T12:41:33.836Z,65.51
2023-01-17T12:44:01.036Z,66.38
2023-01-17T12:46:53.910Z,65.66
2023-01-17T12:49:26.463Z,64.86
2023-01-17T12:51:57.956Z,65.84
2023-01-17T12:54:35.827Z,65.62
2023-01-17T12:57:06.440Z,65.01
2023-01-17T13:00:00.573Z,66.34
2023-01-17T13:02:37.820Z,64.97
2023-01-17T13:05:07.592Z,64.64
2023-01-17T13:07:53.153Z,64.63
2023-01-17T13:10:41.410Z,64.23
2023-01-17T13:13:23.936Z,64.50
2023-01-17T13:15:54.435Z,65.29
2023-01-17T13:18:25.936Z,64.53
2023-01-17T13:21:12.910Z,63.17
2023-01-17T13:23:59.067Z,62.66
2023-01-17T13:26:49.073Z,62.17
2023-01-17T13:29:36.991Z,62.94
2023-01-17T13:32:06.676Z,63.09
2023-01-17T13:34:40.984Z,63.77
2023-01-17T13:37:29.406Z,63.71
2023-01-17T13:40:35.315Z,63.65
2023-01-17T13:43:03.585Z,63.95
2023-01-17T13:45:32.994Z,63.89
2023-01-17T13:48:11.832Z,63.80
2023-01-17T13:50:38.376Z,62.69
2023-01-17T13:53:43.993Z,63.26
2023-01-17T13:56:19.669Z,62.51
2023-01-17T13:58:50.512Z,62.69
2023-01-17T14:01:23.207Z,62.28
2023-01-17T14:03:50.278Z,62.60
2023-01-17T14:06:35.843Z,63.12
2023-01-17T14:09:02.352Z,63.13
2023-01-17T14:11:32.638Z,62.91
2023-01-17T14:14:55.613Z,62.19
2023-01-17T14:17:22.974Z,62.26
2023-01-17T14:19:56.245Z,62.30
2023-01-17T14:22:59.271Z,61.64
2023-01-17T14:25:30.262Z,61.19
2023-01-17T14:28:02.175Z,62.36
2023-01-17T14:30:31.910Z,62.00
2023-01-17T14:32:58.615Z,62.89
2023-01-17T14:35:31.490Z,62.76
2023-01-17T14:38:01.697Z,63.61
2023-01-17T14:40:30.795Z,63.10
2023-01-17T14:43:03.859Z,62.27
2023-01-17T14:45:33.116Z,63.49
2023-01-17T14:48:02.131Z,63.67
2023-01-17T14:50:39.243Z,64.88
2023-01-17T14:53:19.835Z,64.12
2023-01-17T14:56:02.769Z,63.07
2023-01-17T14:58:42.321Z,64.35
2023-01-17T15:01:19.045Z,65.03
2023-01-17T15:03:51.420Z,63.68
2023-01-17T15:06:25.469Z,65.00
2023-01-17T15:08:55.149Z,64.99
2023-01-17T15:11:28.006Z,64.99
2023-01-17T15:13:57.697Z,64.06
2023-01-17T15:16:26.301Z,65.77
2023-01-17T15:18:54.740Z,64.30
2023-01-17T15:21:23.906Z,64.88
2023-01-17T15:23:53.854Z,65.20
2023-01-17T15:26:24.179Z,64.05
2023-01-17T15:28:52.604Z,64.27
2023-01-17T15:31:38.700Z,62.42
2023-01-17T15:34:12.279Z,63.28
2023-01-17T15:36:39.226Z,63.71
2023-01-17T15:39:39.461Z,64.84
2023-01-17T15:42:15.047Z,64.71
2023-01-17T15:44:48.464Z,64.30
2023-01-17T15:47:35.754Z,64.67
2023-01-17T15:50:27.600Z,64.67
2023-01-17T15:53:04.608Z,64.61
2023-01-17T15:55:33.736Z,65.10
2023-01-17T15:58:00.912Z,64.36
2023-01-17T16:00:37.885Z,64.08
2023-01-17T16:03:34.640Z,63.41
2023-01-17T16:06:03.351Z,64.08
2023-01-17T16:08:34.204Z,64.61
2023-01-17T16:11:03.156Z,64.52
2023-01-17T16:13:31.916Z,65.25
2023-01-17T16:16:24.684Z,66.09
2023-01-17T16:18:58.845Z,65.31
2023-01-17T16:21:28.162Z,64.17
2023-01-17T16:23:55.444Z,64.01
2023-01-17T16:26:25.278Z,65.20
2023-01-17T16:28:52.194Z,66.53
2023-01-17T16:31:19.510Z,66.95
2023-01-17T16:33:49.022Z,68.51
2023-01-17T16:36:16.564Z,67.39
2023-01-17T16:38:44.637Z,68.67
2023-01-17T16:41:11.389Z,69.46
2023-01-17T16:43:38.044Z,68.34
2023-01-17T16:46:05.899Z,68.57
2023-01-17T16:48:32.645Z,67.97
2023-01-17T16:50:59.401Z,68.87
2023-01-17T16:53:28.324Z,67.33
2023-01-17T16:55:57.831Z,67.79
2023-01-17T16:58:24.727Z,68.46
2023-01-17T17:00:51.690Z,69.57
2023-01-17T17:03:20.180Z,69.61
2023-01-17T17:05:55.212Z,69.18
2023-01-17T17:08:24.341Z,69.87
2023-01-17T17:10:51.086Z,70.31
2023-01-17T17:13:18.037Z,70.53
2023-01-17T17:15:44.803Z,70.02
2023-01-17T17:18:13.964Z,70.10
2023-01-17T17:20:40.719Z,70.01
2023-01-17T17:23:07.309Z,70.19
2023-01-17T17:25:34.236Z,70.97
2023-01-17T17:28:00.907Z,71.03
2023-01-17T17:30:27.589Z,69.79
2023-01-17T17:32:54.233Z,70.79
2023-01-17T17:35:23.225Z,70.92
2023-01-17T17:37:49.971Z,70.32
2023-01-17T17:40:16.753Z,71.14
2023-01-17T17:42:43.380Z,71.07
2023-01-17T17:45:10.428Z,71.54
2023-01-17T17:47:37.040Z,71.53
2023-01-17T17:50:03.933Z,71.89
2023-01-17T17:52:32.831Z,71.60
2023-01-17T17:54:59.662Z,70.44
2023-01-17T17:57:26.456Z,70.51
2023-01-17T17:59:56.001Z,70.47
2023-01-17T18:02:22.902Z,69.50
2023-01-17T18:04:49.477Z,70.61
2023-01-17T18:07:16.090Z,70.21
2023-01-17T18:09:42.897Z,70.44
2023-01-17T18:12:09.499Z,70.47
2023-01-17T18:14:36.159Z,71.07
2023-01-17T18:17:03.546Z,70.38
2023-01-17T18:19:30.314Z,71.01
2023-01-17T18:21:58.072Z,71.59
2023-01-17T18:24:25.748Z,72.48
2023-01-17T18:26:57.219Z,72.39
2023-01-17T18:29:25.257Z,72.44
2023-01-17T18:31:53.748Z,72.82
2023-01-17T18:34:27.084Z,70.68
2023-01-17T18:36:54.145Z,72.93
2023-01-17T18:39:26.974Z,72.63
2023-01-17T18:41:54.074Z,72.54
2023-01-17T18:44:22.130Z,74.37
2023-01-17T18:46:50.126Z,73.73
2023-01-17T18:49:19.414Z,72.88
2023-01-17T18:51:50.227Z,73.14
2023-01-17T18:54:17.946Z,73.29
2023-01-17T18:56:45.165Z,73.93
2023-01-17T18:59:18.070Z,74.53
2023-01-17T19:01:45.117Z,75.64
2023-01-17T19:04:13.719Z,74.33
2023-01-17T19:06:42.967Z,73.37
2023-01-17T19:09:11.555Z,72.73
2023-01-17T19:11:38.635Z,73.52
2023-01-17T19:14:06.238Z,76.78
2023-01-17T19:16:35.987Z,75.98
2023-01-17T19:19:05.541Z,74.83
2023-01-17T19:21:32.551Z,74.73
2023-01-17T19:23:59.924Z,74.54
2023-01-17T19:26:27.538Z,76.56
2023-01-17T19:28:56.266Z,79.93
2023-01-17T19:31:25.505Z,84.20
2023-01-17T19:33:54.647Z,85.17
2023-01-17T19:36:25.587Z,85.29
2023-01-17T19:39:03.971Z,85.15
2023-01-17T19:41:31.799Z,84.89
2023-01-17T19:44:00.419Z,83.04
2023-01-17T19:46:27.599Z,82.39
2023-01-17T19:48:55.487Z,81.54
2023-01-17T19:51:22.383Z,80.70
2023-01-17T19:53:49.869Z,78.83
2023-01-17T19:56:20.152Z,80.13
2023-01-17T19:58:47.859Z,79.42
2023-01-17T20:01:20.795Z,76.99
2023-01-17T20:03:48.948Z,77.95
2023-01-17T20:06:18.948Z,78.30
2023-01-17T20:08:46.141Z,78.96
2023-01-17T20:11:15.329Z,77.60
2023-01-17T20:13:42.475Z,76.63
2023-01-17T20:16:11.535Z,76.28
2023-01-17T20:18:38.526Z,77.07
2023-01-17T20:21:10.753Z,78.82
2023-01-17T20:23:39.377Z,79.27
2023-01-17T20:26:06.567Z,79.23
2023-01-17T20:28:34.627Z,79.60
2023-01-17T20:31:15.063Z,79.22
2023-01-17T20:33:43.277Z,77.18
2023-01-17T20:36:14.941Z,78.07
2023-01-17T20:38:45.581Z,77.88
2023-01-17T20:41:17.338Z,77.42
2023-01-17T20:43:45.596Z,77.11
2023-01-17T20:46:12.662Z,77.58
2023-01-17T20:48:56.156Z,78.13
2023-01-17T20:51:27.380Z,77.25
2023-01-17T20:53:56.823Z,79.20
2023-01-17T20:56:24.423Z,78.31
2023-01-17T20:58:52.233Z,79.03
2023-01-17T21:01:19.508Z,78.50
2023-01-17T21:03:51.025Z,77.72
2023-01-17T21:06:18.607Z,76.55
2023-01-17T21:08:45.930Z,78.95
2023-01-17T21:11:15.233Z,79.34
2023-01-17T21:13:43.026Z,76.53
2023-01-17T21:16:12.638Z,75.99
2023-01-17T21:18:39.403Z,75.79
2023-01-17T21:21:08.701Z,75.82
2023-01-17T21:23:36.391Z,75.44
2023-01-17T21:26:03.453Z,76.10
2023-01-17T21:28:32.463Z,76.58
2023-01-17T21:30:59.474Z,77.02
2023-01-17T21:33:27.191Z,78.47
2023-01-17T21:35:53.779Z,77.50
2023-01-17T21:38:22.700Z,78.06
2023-01-17T21:40:49.383Z,78.21
2023-01-17T21:43:16.012Z,78.04
2023-01-17T21:45:43.071Z,78.07
2023-01-17T21:48:14.528Z,78.09
2023-01-17T21:50:41.312Z,79.39
2023-01-17T21:53:09.997Z,80.82
2023-01-17T21:55:55.947Z,79.79
2023-01-17T21:58:41.193Z,78.34
2023-01-17T22:01:15.587Z,78.43
2023-01-17T22:03:42.757Z,79.09
2023-01-17T22:06:10.337Z,79.75
2023-01-17T22:08:37.923Z,78.86
2023-01-17T22:11:10.918Z,79.51
2023-01-17T22:13:38.865Z,79.57
2023-01-17T22:16:10.277Z,79.63
2023-01-17T22:18:38.925Z,78.10
2023-01-17T22:21:12.262Z,78.08
2023-01-17T22:23:40.099Z,78.92
2023-01-17T22:26:11.841Z,78.14
2023-01-17T22:28:39.501Z,78.33
2023-01-17T22:31:08.842Z,77.29
2023-01-17T22:33:37.090Z,76.88
2023-01-17T22:36:04.694Z,77.88
2023-01-17T22:38:31.988Z,77.88
2023-01-17T22:41:09.262Z,76.89
2023-01-17T22:43:43.133Z,76.41
2023-01-17T22:46:12.664Z,76.33
2023-01-17T22:48:39.940Z,76.38
2023-01-17T22:51:08.728Z,77.62
2023-01-17T22:53:46.118Z,78.50
2023-01-17T22:56:14.796Z,78.43
2023-01-17T22:58:44.695Z,78.93
2023-01-17T23:01:13.458Z,79.03
2023-01-17T23:03:41.131Z,79.34
2023-01-17T23:06:17.354Z,79.71
2023-01-17T23:08:45.932Z,78.56
2023-01-17T23:11:39.009Z,78.86
2023-01-17T23:14:23.199Z,78.90
2023-01-17T23:17:09.434Z,78.77
2023-01-17T23:19:47.975Z,77.74
2023-01-17T23:22:19.024Z,78.01
2023-01-17T23:25:00.448Z,79.20
2023-01-17T23:27:59.331Z,80.40
2023-01-17T23:30:37.324Z,80.16
2023-01-17T23:33:06.184Z,77.83
2023-01-17T23:35:41.446Z,77.73
2023-01-17T23:38:33.585Z,77.34
2023-01-17T23:41:21.764Z,76.60
2023-01-17T23:43:53.441Z,77.29
2023-01-17T23:46:20.395Z,78.38
2023-01-17T23:48:47.463Z,77.10
2023-01-17T23:51:14.154Z,75.46
2023-01-17T23:53:41.089Z,76.70
2023-01-17T23:56:15.225Z,77.00
2023-01-17T23:58:42.035Z,77.32
